sensor_id;sensor_type;location;lat;lon;timestamp;pressure;altitude;pressure_sealevel;temperature;humidity
40155;BME280;25875;48.202;16.334;2022-12-18T00:00:05;100631.63;;;-0.66;67.30
40155;BME280;25875;48.202;16.334;2022-12-18T00:02:33;100379.53;;;-2.04;67.07
40155;BME280;25875;48.202;16.334;2022-12-18T00:05:00;100608.13;;;-0.74;67.07
40155;BME280;25875;48.202;16.334;2022-12-18T00:07:27;101030.81;;;-0.71;67.31
40155;BME280;25875;48.202;16.334;2022-12-18T00:09:54;100618.56;;;-0.71;67.33
40155;BME280;25875;48.202;16.334;2022-12-18T00:12:20;100219.72;;;-3.20;67.18
40155;BME280;25875;48.202;16.334;2022-12-18T00:14:47;100383.75;;;-2.12;67.50
40155;BME280;25875;48.202;16.334;2022-12-18T00:17:14;100629.84;;;-0.72;67.60
40155;BME280;25875;48.202;16.334;2022-12-18T00:19:42;100634.16;;;-0.74;67.58
40155;BME280;25875;48.202;16.334;2022-12-18T00:22:09;100637.63;;;-0.75;67.63
40155;BME280;25875;48.202;16.334;2022-12-18T00:24:35;100439.44;;;-1.90;67.41
40155;BME280;25875;48.202;16.334;2022-12-18T00:27:03;100631.53;;;-0.77;67.71
40155;BME280;25875;48.202;16.334;2022-12-18T00:29:30;100631.50;;;-0.79;67.58
40155;BME280;25875;48.202;16.334;2022-12-18T00:31:57;100630.63;;;-0.79;67.49
40155;BME280;25875;48.202;16.334;2022-12-18T00:34:24;100631.47;;;-0.82;67.59
40155;BME280;25875;48.202;16.334;2022-12-18T00:36:52;100434.03;;;-2.09;67.42
40155;BME280;25875;48.202;16.334;2022-12-18T00:39:19;100331.94;;;-2.71;67.58
40155;BME280;25875;48.202;16.334;2022-12-18T00:41:46;100647.03;;;-0.86;67.68
40155;BME280;25875;48.202;16.334;2022-12-18T00:44:30;100651.34;;;-0.90;67.68
40155;BME280;25875;48.202;16.334;2022-12-18T00:46:57;100462.75;;;-1.97;67.32
40155;BME280;25875;48.202;16.334;2022-12-18T00:49:24;100653.03;;;-0.93;67.54
40155;BME280;25875;48.202;16.334;2022-12-18T00:51:52;100655.63;;;-0.95;67.34
40155;BME280;25875;48.202;16.334;2022-12-18T00:54:19;100656.47;;;-0.96;67.52
40155;BME280;25875;48.202;16.334;2022-12-18T00:56:47;100650.38;;;-0.96;67.54
40155;BME280;25875;48.202;16.334;2022-12-18T00:59:14;100659.03;;;-0.99;67.34
40155;BME280;25875;48.202;16.334;2022-12-18T01:01:41;100132.88;;;-4.07;67.13
40155;BME280;25875;48.202;16.334;2022-12-18T01:04:08;100321.78;;;-4.55;67.11
40155;BME280;25875;48.202;16.334;2022-12-18T01:06:34;100530.50;;;-1.83;67.30
40155;BME280;25875;48.202;16.334;2022-12-18T01:09:03;100678.88;;;-1.06;67.35
40155;BME280;25875;48.202;16.334;2022-12-18T01:11:30;100673.63;;;-1.09;67.30
40155;BME280;25875;48.202;16.334;2022-12-18T01:14:00;100498.84;;;-2.18;67.21
40155;BME280;25875;48.202;16.334;2022-12-18T01:16:27;100683.09;;;-1.14;67.31
40155;BME280;25875;48.202;16.334;2022-12-18T01:18:54;100690.00;;;-1.16;67.21
40155;BME280;25875;48.202;16.334;2022-12-18T01:21:21;100375.66;;;-2.97;67.30
40155;BME280;25875;48.202;16.334;2022-12-18T01:23:54;100483.81;;;-2.39;66.86
40155;BME280;25875;48.202;16.334;2022-12-18T01:26:23;99895.94;;;-6.79;66.99
40155;BME280;25875;48.202;16.334;2022-12-18T01:28:51;100683.84;;;-1.22;67.51
40155;BME280;25875;48.202;16.334;2022-12-18T01:31:21;100686.44;;;-1.24;67.43
40155;BME280;25875;48.202;16.334;2022-12-18T01:33:54;99695.31;;;-7.03;66.71
40155;BME280;25875;48.202;16.334;2022-12-18T01:36:22;99010.03;;;-11.38;66.71
40155;BME280;25875;48.202;16.334;2022-12-18T01:38:51;100915.25;;;-1.28;67.29
40155;BME280;25875;48.202;16.334;2022-12-18T01:41:20;100453.03;;;-2.70;67.24
40155;BME280;25875;48.202;16.334;2022-12-18T01:43:52;100700.19;;;-1.31;67.35
40155;BME280;25875;48.202;16.334;2022-12-18T01:46:21;100698.44;;;-1.32;67.46
40155;BME280;25875;48.202;16.334;2022-12-18T01:48:50;100579.53;;;-2.06;67.46
40155;BME280;25875;48.202;16.334;2022-12-18T01:51:18;100701.88;;;-1.36;67.46
40155;BME280;25875;48.202;16.334;2022-12-18T01:53:46;100708.78;;;-1.38;67.46
40155;BME280;25875;48.202;16.334;2022-12-18T01:56:15;100379.44;;;-3.31;67.29
40155;BME280;25875;48.202;16.334;2022-12-18T01:58:48;100677.22;;;-1.61;67.29
40155;BME280;25875;48.202;16.334;2022-12-18T02:01:19;100702.59;;;-1.45;67.57
40155;BME280;25875;48.202;16.334;2022-12-18T02:03:47;100708.63;;;-1.47;67.51
40155;BME280;25875;48.202;16.334;2022-12-18T02:06:16;100710.34;;;-1.49;67.67
40155;BME280;25875;48.202;16.334;2022-12-18T02:08:56;100704.25;;;-1.51;67.49
40155;BME280;25875;48.202;16.334;2022-12-18T02:11:33;100716.34;;;-1.53;66.92
40155;BME280;25875;48.202;16.334;2022-12-18T02:14:13;100719.78;;;-1.56;67.37
40155;BME280;25875;48.202;16.334;2022-12-18T02:16:49;100643.72;;;-1.99;67.20
40155;BME280;25875;48.202;16.334;2022-12-18T02:19:41;100722.31;;;-1.59;66.88
40155;BME280;25875;48.202;16.334;2022-12-18T02:22:24;100489.84;;;-2.94;67.18
40155;BME280;25875;48.202;16.334;2022-12-18T02:25:01;100723.97;;;-1.64;67.38
40155;BME280;25875;48.202;16.334;2022-12-18T02:27:35;100727.41;;;-1.67;67.64
40155;BME280;25875;48.202;16.334;2022-12-18T02:30:05;100444.88;;;-3.43;67.56
40155;BME280;25875;48.202;16.334;2022-12-18T02:32:36;100602.34;;;-2.41;67.57
40155;BME280;25875;48.202;16.334;2022-12-18T02:35:10;99967.06;;;-6.13;67.14
40155;BME280;25875;48.202;16.334;2022-12-18T02:37:39;100724.78;;;-1.68;67.77
40155;BME280;25875;48.202;16.334;2022-12-18T02:40:10;100739.50;;;-1.69;67.78
40155;BME280;25875;48.202;16.334;2022-12-18T02:42:39;100445.78;;;-3.41;67.48
40155;BME280;25875;48.202;16.334;2022-12-18T02:45:07;100734.22;;;-1.73;67.90
40155;BME280;25875;48.202;16.334;2022-12-18T02:47:37;100738.53;;;-1.75;67.90
40155;BME280;25875;48.202;16.334;2022-12-18T02:50:10;100741.97;;;-1.76;67.86
40155;BME280;25875;48.202;16.334;2022-12-18T02:52:48;100542.66;;;-2.90;67.50
40155;BME280;25875;48.202;16.334;2022-12-18T02:55:29;100746.28;;;-1.78;67.58
40155;BME280;25875;48.202;16.334;2022-12-18T02:58:05;100611.47;;;-2.63;67.50
40155;BME280;25875;48.202;16.334;2022-12-18T03:00:39;100754.88;;;-1.82;67.53
40155;BME280;25875;48.202;16.334;2022-12-18T03:03:10;100648.88;;;-2.51;67.87
40155;BME280;25875;48.202;16.334;2022-12-18T03:05:43;100765.22;;;-1.84;67.85
40155;BME280;25875;48.202;16.334;2022-12-18T03:08:14;100624.47;;;-2.61;67.93
40155;BME280;25875;48.202;16.334;2022-12-18T03:10:50;99814.81;;;-7.35;67.24
40155;BME280;25875;48.202;16.334;2022-12-18T03:13:24;100764.31;;;-1.87;67.92
40155;BME280;25875;48.202;16.334;2022-12-18T03:15:54;100761.69;;;-1.89;67.91
40155;BME280;25875;48.202;16.334;2022-12-18T03:18:25;100669.59;;;-5.08;67.66
40155;BME280;25875;48.202;16.334;2022-12-18T03:20:57;100756.44;;;-1.92;67.94
40155;BME280;25875;48.202;16.334;2022-12-18T03:23:29;100755.56;;;-1.92;67.91
40155;BME280;25875;48.202;16.334;2022-12-18T03:26:03;100765.94;;;-1.92;68.14
40155;BME280;25875;48.202;16.334;2022-12-18T03:28:35;100785.78;;;-1.98;67.89
40155;BME280;25875;48.202;16.334;2022-12-18T03:31:05;100760.63;;;-2.00;68.01
40155;BME280;25875;48.202;16.334;2022-12-18T03:33:38;99380.72;;;-10.01;67.32
40155;BME280;25875;48.202;16.334;2022-12-18T03:36:06;100316.56;;;-4.58;68.22
40155;BME280;25875;48.202;16.334;2022-12-18T03:38:34;100629.50;;;-3.15;68.18
40155;BME280;25875;48.202;16.334;2022-12-18T03:41:08;100760.47;;;-2.08;68.04
40155;BME280;25875;48.202;16.334;2022-12-18T03:43:47;100765.66;;;-2.09;68.08
40155;BME280;25875;48.202;16.334;2022-12-18T03:46:21;100639.66;;;-2.82;68.14
40155;BME280;25875;48.202;16.334;2022-12-18T03:48:54;100772.59;;;-2.08;68.06
40155;BME280;25875;48.202;16.334;2022-12-18T03:51:27;100809.75;;;-2.12;68.14
40155;BME280;25875;48.202;16.334;2022-12-18T03:53:58;100781.13;;;-2.15;68.02
40155;BME280;25875;48.202;16.334;2022-12-18T03:56:28;100123.22;;;-5.93;67.68
40155;BME280;25875;48.202;16.334;2022-12-18T03:59:00;99616.28;;;-8.90;67.62
40155;BME280;25875;48.202;16.334;2022-12-18T04:01:33;100787.09;;;-2.19;68.02
40155;BME280;25875;48.202;16.334;2022-12-18T04:04:02;100794.03;;;-2.20;68.01
40155;BME280;25875;48.202;16.334;2022-12-18T04:06:30;100790.56;;;-2.19;68.02
40155;BME280;25875;48.202;16.334;2022-12-18T04:08:58;100711.78;;;-2.65;67.95
40155;BME280;25875;48.202;16.334;2022-12-18T04:11:25;100796.59;;;-2.21;68.21
40155;BME280;25875;48.202;16.334;2022-12-18T04:13:55;100804.31;;;-2.24;67.99
40155;BME280;25875;48.202;16.334;2022-12-18T04:16:23;100801.69;;;-2.26;68.38
40155;BME280;25875;48.202;16.334;2022-12-18T04:18:50;100800.81;;;-2.26;68.42
40155;BME280;25875;48.202;16.334;2022-12-18T04:21:17;100804.31;;;-2.24;68.08
40155;BME280;25875;48.202;16.334;2022-12-18T04:23:44;100821.56;;;-2.28;68.22
40155;BME280;25875;48.202;16.334;2022-12-18T04:26:11;100473.34;;;-4.27;67.71
40155;BME280;25875;48.202;16.334;2022-12-18T04:28:38;100812.88;;;-2.30;68.07
40155;BME280;25875;48.202;16.334;2022-12-18T04:31:05;100810.22;;;-2.33;68.23
40155;BME280;25875;48.202;16.334;2022-12-18T04:33:34;100819.69;;;-2.35;68.37
40155;BME280;25875;48.202;16.334;2022-12-18T04:36:02;100822.25;;;-2.37;68.09
40155;BME280;25875;48.202;16.334;2022-12-18T04:38:29;100817.84;;;-2.41;68.18
40155;BME280;25875;48.202;16.334;2022-12-18T04:40:55;100825.63;;;-2.41;68.47
40155;BME280;25875;48.202;16.334;2022-12-18T04:43:22;100830.81;;;-2.41;68.19
40155;BME280;25875;48.202;16.334;2022-12-18T04:45:49;100826.50;;;-2.40;68.35
40155;BME280;25875;48.202;16.334;2022-12-18T04:48:16;100828.22;;;-2.41;68.02
40155;BME280;25875;48.202;16.334;2022-12-18T04:50:44;100575.22;;;-3.87;68.00
40155;BME280;25875;48.202;16.334;2022-12-18T04:53:11;100829.91;;;-2.43;68.11
40155;BME280;25875;48.202;16.334;2022-12-18T04:55:38;100835.09;;;-2.43;68.18
40155;BME280;25875;48.202;16.334;2022-12-18T04:58:04;100844.59;;;-2.45;68.21
40155;BME280;25875;48.202;16.334;2022-12-18T05:00:31;100847.16;;;-2.46;68.20
40155;BME280;25875;48.202;16.334;2022-12-18T05:03:00;100846.22;;;-2.50;68.24
40155;BME280;25875;48.202;16.334;2022-12-18T05:05:27;100853.13;;;-2.50;68.15
40155;BME280;25875;48.202;16.334;2022-12-18T05:07:55;100851.34;;;-2.53;68.22
40155;BME280;25875;48.202;16.334;2022-12-18T05:10:22;100779.91;;;-3.15;68.48
40155;BME280;25875;48.202;16.334;2022-12-18T05:12:49;100864.28;;;-2.54;68.41
40155;BME280;25875;48.202;16.334;2022-12-18T05:15:26;100859.84;;;-2.60;68.58
40155;BME280;25875;48.202;16.334;2022-12-18T05:17:53;100871.91;;;-2.62;68.56
40155;BME280;25875;48.202;16.334;2022-12-18T05:20:20;100871.91;;;-2.62;68.72
40155;BME280;25875;48.202;16.334;2022-12-18T05:22:46;100867.50;;;-2.66;68.76
40155;BME280;25875;48.202;16.334;2022-12-18T05:25:15;100873.59;;;-2.64;68.58
40155;BME280;25875;48.202;16.334;2022-12-18T05:27:42;100869.22;;;-2.67;68.70
40155;BME280;25875;48.202;16.334;2022-12-18T05:30:09;100836.88;;;-2.81;68.75
40155;BME280;25875;48.202;16.334;2022-12-18T05:32:37;100830.63;;;-2.90;68.72
40155;BME280;25875;48.202;16.334;2022-12-18T05:35:05;100872.53;;;-2.72;68.95
40155;BME280;25875;48.202;16.334;2022-12-18T05:37:32;100876.75;;;-2.77;68.75
40155;BME280;25875;48.202;16.334;2022-12-18T05:39:59;100881.94;;;-2.77;69.01
40155;BME280;25875;48.202;16.334;2022-12-18T05:42:27;100851.25;;;-2.95;68.89
40155;BME280;25875;48.202;16.334;2022-12-18T05:44:54;100876.75;;;-2.77;68.83
40155;BME280;25875;48.202;16.334;2022-12-18T05:47:21;100883.63;;;-2.79;68.98
40155;BME280;25875;48.202;16.334;2022-12-18T05:49:48;100870.63;;;-2.81;69.07
40155;BME280;25875;48.202;16.334;2022-12-18T05:52:14;100879.28;;;-2.80;68.82
40155;BME280;25875;48.202;16.334;2022-12-18T05:54:41;100879.22;;;-2.83;69.15
40155;BME280;25875;48.202;16.334;2022-12-18T05:57:08;100873.94;;;-2.86;68.93
40155;BME280;25875;48.202;16.334;2022-12-18T05:59:37;100870.47;;;-2.87;69.20
40155;BME280;25875;48.202;16.334;2022-12-18T06:02:04;100877.38;;;-2.87;69.14
40155;BME280;25875;48.202;16.334;2022-12-18T06:04:31;100819.47;;;-3.24;69.21
40155;BME280;25875;48.202;16.334;2022-12-18T06:06:58;100887.06;;;-2.80;69.09
40155;BME280;25875;48.202;16.334;2022-12-18T06:09:25;100895.69;;;-2.81;68.89
40155;BME280;25875;48.202;16.334;2022-12-18T06:11:52;100900.88;;;-2.81;69.06
40155;BME280;25875;48.202;16.334;2022-12-18T06:14:19;100901.75;;;-2.81;68.92
40155;BME280;25875;48.202;16.334;2022-12-18T06:16:50;100906.00;;;-2.84;68.83
40155;BME280;25875;48.202;16.334;2022-12-18T06:19:18;100812.00;;;-3.46;68.78
40155;BME280;25875;48.202;16.334;2022-12-18T06:21:45;100914.66;;;-2.84;68.81
40155;BME280;25875;48.202;16.334;2022-12-18T06:24:12;100914.63;;;-2.85;68.65
40155;BME280;25875;48.202;16.334;2022-12-18T06:26:39;100908.44;;;-2.90;68.94
40155;BME280;25875;48.202;16.334;2022-12-18T06:29:06;100865.34;;;-3.21;68.86
40155;BME280;25875;48.202;16.334;2022-12-18T06:31:32;100921.44;;;-2.89;68.97
40155;BME280;25875;48.202;16.334;2022-12-18T06:34:03;100845.25;;;-3.30;68.76
40155;BME280;25875;48.202;16.334;2022-12-18T06:36:30;100922.38;;;-2.87;68.86
40155;BME280;25875;48.202;16.334;2022-12-18T06:38:57;100922.28;;;-2.90;68.84
40155;BME280;25875;48.202;16.334;2022-12-18T06:41:24;100920.53;;;-2.91;68.89
40155;BME280;25875;48.202;16.334;2022-12-18T06:43:50;100920.22;;;-3.05;68.90
40155;BME280;25875;48.202;16.334;2022-12-18T06:46:17;100927.44;;;-2.91;68.90
40155;BME280;25875;48.202;16.334;2022-12-18T06:48:47;100825.56;;;-3.56;68.98
40155;BME280;25875;48.202;16.334;2022-12-18T06:51:18;100930.91;;;-2.91;69.01
40155;BME280;25875;48.202;16.334;2022-12-18T06:53:45;100774.53;;;-3.92;69.00
40155;BME280;25875;48.202;16.334;2022-12-18T06:56:12;100936.09;;;-2.91;69.18
40155;BME280;25875;48.202;16.334;2022-12-18T06:58:39;100965.44;;;-2.93;69.02
40155;BME280;25875;48.202;16.334;2022-12-18T07:01:08;100956.78;;;-2.94;69.27
40155;BME280;25875;48.202;16.334;2022-12-18T07:03:36;100955.91;;;-2.95;69.21
40155;BME280;25875;48.202;16.334;2022-12-18T07:06:03;100917.91;;;-3.27;69.24
40155;BME280;25875;48.202;16.334;2022-12-18T07:08:32;100976.66;;;-2.95;69.33
40155;BME280;25875;48.202;16.334;2022-12-18T07:10:59;100961.91;;;-2.97;69.20
40155;BME280;25875;48.202;16.334;2022-12-18T07:13:25;100961.91;;;-2.97;69.38
40155;BME280;25875;48.202;16.334;2022-12-18T07:15:52;100972.31;;;-2.96;69.22
40155;BME280;25875;48.202;16.334;2022-12-18T07:18:19;100971.44;;;-2.96;69.22
40155;BME280;25875;48.202;16.334;2022-12-18T07:20:46;100968.75;;;-2.99;69.38
40155;BME280;25875;48.202;16.334;2022-12-18T07:23:13;100882.72;;;-3.52;69.37
40155;BME280;25875;48.202;16.334;2022-12-18T07:25:41;100987.00;;;-2.96;69.49
40155;BME280;25875;48.202;16.334;2022-12-18T07:28:08;100992.19;;;-2.96;69.27
40155;BME280;25875;48.202;16.334;2022-12-18T07:30:37;101019.06;;;-2.94;69.62
40155;BME280;25875;48.202;16.334;2022-12-18T07:33:04;100946.56;;;-3.22;69.54
40155;BME280;25875;48.202;16.334;2022-12-18T07:35:30;101001.69;;;-2.97;69.47
40155;BME280;25875;48.202;16.334;2022-12-18T07:37:57;101004.28;;;-2.97;69.55
40155;BME280;25875;48.202;16.334;2022-12-18T07:40:24;101001.78;;;-2.93;69.73
40155;BME280;25875;48.202;16.334;2022-12-18T07:42:52;101001.84;;;-2.90;69.70
40155;BME280;25875;48.202;16.334;2022-12-18T07:45:19;101009.66;;;-2.89;69.52
40155;BME280;25875;48.202;16.334;2022-12-18T07:47:46;101040.88;;;-2.86;69.67
40155;BME280;25875;48.202;16.334;2022-12-18T07:50:12;101010.69;;;-2.82;69.60
40155;BME280;25875;48.202;16.334;2022-12-18T07:52:40;100928.22;;;-3.30;69.72
40155;BME280;25875;48.202;16.334;2022-12-18T07:55:07;100785.38;;;-4.07;69.46
40155;BME280;25875;48.202;16.334;2022-12-18T07:57:34;101023.41;;;-2.58;69.55
40155;BME280;25875;48.202;16.334;2022-12-18T08:00:03;101029.69;;;-2.49;69.41
40155;BME280;25875;48.202;16.334;2022-12-18T08:02:30;101036.81;;;-2.40;69.30
40155;BME280;25875;48.202;16.334;2022-12-18T08:04:57;101035.28;;;-2.32;69.22
40155;BME280;25875;48.202;16.334;2022-12-18T08:07:24;101037.16;;;-2.26;68.97
40155;BME280;25875;48.202;16.334;2022-12-18T08:09:51;101046.00;;;-2.18;68.89
40155;BME280;25875;48.202;16.334;2022-12-18T08:12:18;101036.69;;;-2.09;68.68
40155;BME280;25875;48.202;16.334;2022-12-18T08:14:45;101026.47;;;-2.01;68.73
40155;BME280;25875;48.202;16.334;2022-12-18T08:17:13;100966.03;;;-2.32;68.51
40155;BME280;25875;48.202;16.334;2022-12-18T08:19:40;101044.13;;;-1.86;68.33
40155;BME280;25875;48.202;16.334;2022-12-18T08:22:06;101046.81;;;-1.82;68.25
40155;BME280;25875;48.202;16.334;2022-12-18T08:24:33;101037.38;;;-1.78;68.21
40155;BME280;25875;48.202;16.334;2022-12-18T08:27:00;101037.38;;;-1.78;67.98
40155;BME280;25875;48.202;16.334;2022-12-18T08:29:26;101010.06;;;-1.99;68.53
40155;BME280;25875;48.202;16.334;2022-12-18T08:31:53;101039.13;;;-1.77;68.70
40155;BME280;25875;48.202;16.334;2022-12-18T08:34:21;101036.56;;;-1.76;68.18
40155;BME280;25875;48.202;16.334;2022-12-18T08:36:48;101038.28;;;-1.76;68.22
40155;BME280;25875;48.202;16.334;2022-12-18T08:39:15;101003.19;;;-1.97;67.96
40155;BME280;25875;48.202;16.334;2022-12-18T08:41:42;101044.38;;;-1.74;67.73
40155;BME280;25875;48.202;16.334;2022-12-18T08:44:28;100825.91;;;-3.07;67.73
40155;BME280;25875;48.202;16.334;2022-12-18T08:47:03;101053.78;;;-1.81;66.79
40155;BME280;25875;48.202;16.334;2022-12-18T08:49:32;101047.72;;;-1.80;67.83
40155;BME280;25875;48.202;16.334;2022-12-18T08:51:59;101045.13;;;-1.80;67.98
40155;BME280;25875;48.202;16.334;2022-12-18T08:54:27;101058.13;;;-1.80;67.69
40155;BME280;25875;48.202;16.334;2022-12-18T08:56:54;101059.03;;;-1.78;67.81
40155;BME280;25875;48.202;16.334;2022-12-18T08:59:21;101058.97;;;-1.81;67.86
40155;BME280;25875;48.202;16.334;2022-12-18T09:01:48;100941.44;;;-2.49;67.94
40155;BME280;25875;48.202;16.334;2022-12-18T09:04:15;100963.13;;;-2.45;67.92
40155;BME280;25875;48.202;16.334;2022-12-18T09:06:44;101062.41;;;-1.82;67.88
40155;BME280;25875;48.202;16.334;2022-12-18T09:09:10;101061.53;;;-1.82;67.98
40155;BME280;25875;48.202;16.334;2022-12-18T09:11:38;101015.78;;;-2.15;67.64
40155;BME280;25875;48.202;16.334;2022-12-18T09:14:05;101068.31;;;-1.89;68.02
40155;BME280;25875;48.202;16.334;2022-12-18T09:16:32;101070.03;;;-1.89;67.92
40155;BME280;25875;48.202;16.334;2022-12-18T09:19:01;101077.97;;;-1.83;68.00
40155;BME280;25875;48.202;16.334;2022-12-18T09:21:30;100933.34;;;-2.61;67.82
40155;BME280;25875;48.202;16.334;2022-12-18T09:23:59;101068.41;;;-1.86;68.07
40155;BME280;25875;48.202;16.334;2022-12-18T09:26:26;101065.81;;;-1.84;67.89
40155;BME280;25875;48.202;16.334;2022-12-18T09:28:54;101069.34;;;-1.82;68.09
40155;BME280;25875;48.202;16.334;2022-12-18T09:31:22;101078.00;;;-1.82;67.95
40155;BME280;25875;48.202;16.334;2022-12-18T09:33:49;101059.84;;;-1.80;67.79
40155;BME280;25875;48.202;16.334;2022-12-18T09:36:17;100812.09;;;-3.43;67.47
40155;BME280;25875;48.202;16.334;2022-12-18T09:38:45;100874.72;;;-2.90;67.96
40155;BME280;25875;48.202;16.334;2022-12-18T09:41:33;101055.34;;;-1.89;67.52
40155;BME280;25875;48.202;16.334;2022-12-18T09:44:11;101076.91;;;-1.93;67.57
40155;BME280;25875;48.202;16.334;2022-12-18T09:46:44;100907.13;;;-3.09;67.31
40155;BME280;25875;48.202;16.334;2022-12-18T09:49:15;101065.69;;;-1.90;67.79
40155;BME280;25875;48.202;16.334;2022-12-18T09:51:45;101061.38;;;-1.90;67.58
40155;BME280;25875;48.202;16.334;2022-12-18T09:54:18;100958.66;;;-2.52;67.20
40155;BME280;25875;48.202;16.334;2022-12-18T09:56:49;101061.28;;;-1.94;67.58
40155;BME280;25875;48.202;16.334;2022-12-18T09:59:21;101044.88;;;-1.92;67.38
40155;BME280;25875;48.202;16.334;2022-12-18T10:01:50;101068.22;;;-1.93;67.64
40155;BME280;25875;48.202;16.334;2022-12-18T10:04:17;101053.50;;;-1.93;67.59
40155;BME280;25875;48.202;16.334;2022-12-18T10:06:49;101055.25;;;-1.92;67.23
40155;BME280;25875;48.202;16.334;2022-12-18T10:09:27;100973.66;;;-2.39;67.26
40155;BME280;25875;48.202;16.334;2022-12-18T10:12:04;101050.34;;;-2.17;66.35
40155;BME280;25875;48.202;16.334;2022-12-18T10:14:41;101047.97;;;-2.08;67.05
40155;BME280;25875;48.202;16.334;2022-12-18T10:17:16;101048.00;;;-2.07;67.32
40155;BME280;25875;48.202;16.334;2022-12-18T10:19:50;100998.19;;;-2.26;67.05
40155;BME280;25875;48.202;16.334;2022-12-18T10:22:29;101048.09;;;-2.02;66.99
40155;BME280;25875;48.202;16.334;2022-12-18T10:25:03;100902.44;;;-2.88;67.13
40155;BME280;25875;48.202;16.334;2022-12-18T10:27:33;101041.19;;;-2.02;67.28
40155;BME280;25875;48.202;16.334;2022-12-18T10:30:03;101035.19;;;-1.99;67.21
40155;BME280;25875;48.202;16.334;2022-12-18T10:32:32;101047.34;;;-1.98;67.12
40155;BME280;25875;48.202;16.334;2022-12-18T10:34:58;100889.56;;;-2.85;66.95
40155;BME280;25875;48.202;16.334;2022-12-18T10:37:27;101049.09;;;-1.97;67.00
40155;BME280;25875;48.202;16.334;2022-12-18T10:40:12;101041.22;;;-2.00;66.11
40155;BME280;25875;48.202;16.334;2022-12-18T10:42:41;101036.75;;;-2.06;66.70
40155;BME280;25875;48.202;16.334;2022-12-18T10:45:13;101038.38;;;-2.11;66.81
40155;BME280;25875;48.202;16.334;2022-12-18T10:47:45;101042.69;;;-2.11;66.86
40155;BME280;25875;48.202;16.334;2022-12-18T10:50:24;101040.13;;;-2.10;66.54
40155;BME280;25875;48.202;16.334;2022-12-18T10:52:55;101027.16;;;-2.10;67.09
40155;BME280;25875;48.202;16.334;2022-12-18T10:55:22;101029.81;;;-2.07;66.83
40155;BME280;25875;48.202;16.334;2022-12-18T10:57:51;101020.25;;;-2.08;67.28
40155;BME280;25875;48.202;16.334;2022-12-18T11:00:27;101015.94;;;-2.07;67.05
40155;BME280;25875;48.202;16.334;2022-12-18T11:02:55;101026.47;;;-2.01;67.13
40155;BME280;25875;48.202;16.334;2022-12-18T11:05:27;101016.09;;;-2.01;66.99
40155;BME280;25875;48.202;16.334;2022-12-18T11:07:56;100934.19;;;-2.62;67.28
40155;BME280;25875;48.202;16.334;2022-12-18T11:10:28;101021.31;;;-2.00;66.94
40155;BME280;25875;48.202;16.334;2022-12-18T11:13:11;101015.13;;;-2.05;66.32
40155;BME280;25875;48.202;16.334;2022-12-18T11:15:41;101022.91;;;-2.06;67.17
40155;BME280;25875;48.202;16.334;2022-12-18T11:18:17;101017.78;;;-2.03;66.56
40155;BME280;25875;48.202;16.334;2022-12-18T11:20:50;101021.19;;;-2.06;66.50
40155;BME280;25875;48.202;16.334;2022-12-18T11:23:19;101019.38;;;-2.08;67.02
40155;BME280;25875;48.202;16.334;2022-12-18T11:25:52;101022.78;;;-2.11;66.80
40155;BME280;25875;48.202;16.334;2022-12-18T11:28:36;101028.88;;;-2.10;66.71
40155;BME280;25875;48.202;16.334;2022-12-18T11:31:19;101014.81;;;-2.18;66.63
40155;BME280;25875;48.202;16.334;2022-12-18T11:33:54;101024.47;;;-2.13;67.08
40155;BME280;25875;48.202;16.334;2022-12-18T11:36:23;101015.88;;;-2.10;67.00
40155;BME280;25875;48.202;16.334;2022-12-18T11:38:52;100920.91;;;-2.76;66.78
40155;BME280;25875;48.202;16.334;2022-12-18T11:41:24;101015.66;;;-2.19;66.90
40155;BME280;25875;48.202;16.334;2022-12-18T11:44:19;101012.22;;;-2.18;66.76
40155;BME280;25875;48.202;16.334;2022-12-18T11:46:51;101008.75;;;-2.19;67.07
40155;BME280;25875;48.202;16.334;2022-12-18T11:49:22;101004.34;;;-2.23;67.06
40155;BME280;25875;48.202;16.334;2022-12-18T11:51:53;101000.94;;;-2.20;67.27
40155;BME280;25875;48.202;16.334;2022-12-18T11:54:22;100978.22;;;-2.29;67.42
40155;BME280;25875;48.202;16.334;2022-12-18T11:56:51;100893.16;;;-2.78;67.25
40155;BME280;25875;48.202;16.334;2022-12-18T11:59:29;100966.72;;;-2.40;66.79
40155;BME280;25875;48.202;16.334;2022-12-18T12:02:03;100989.63;;;-2.22;66.84
40155;BME280;25875;48.202;16.334;2022-12-18T12:04:56;100999.19;;;-2.21;67.10
40155;BME280;25875;48.202;16.334;2022-12-18T12:07:36;100796.56;;;-3.42;66.86
40155;BME280;25875;48.202;16.334;2022-12-18T12:10:18;101002.59;;;-2.24;66.84
40155;BME280;25875;48.202;16.334;2022-12-18T12:13:03;101006.81;;;-2.27;66.94
40155;BME280;25875;48.202;16.334;2022-12-18T12:15:41;100997.22;;;-2.32;67.04
40155;BME280;25875;48.202;16.334;2022-12-18T12:18:20;100849.81;;;-3.20;67.28
40155;BME280;25875;48.202;16.334;2022-12-18T12:21:00;100998.16;;;-2.28;67.35
40155;BME280;25875;48.202;16.334;2022-12-18T12:23:38;100988.66;;;-2.27;67.20
40155;BME280;25875;48.202;16.334;2022-12-18T12:26:10;100907.53;;;-2.92;67.20
40155;BME280;25875;48.202;16.334;2022-12-18T12:28:54;100995.41;;;-2.34;66.99
40155;BME280;25875;48.202;16.334;2022-12-18T12:31:41;100991.97;;;-2.33;67.14
40155;BME280;25875;48.202;16.334;2022-12-18T12:34:17;100900.03;;;-2.80;67.39
40155;BME280;25875;48.202;16.334;2022-12-18T12:36:57;100988.72;;;-2.24;67.31
40155;BME280;25875;48.202;16.334;2022-12-18T12:39:30;100968.91;;;-2.19;67.46
40155;BME280;25875;48.202;16.334;2022-12-18T12:41:57;100970.75;;;-2.15;67.70
40155;BME280;25875;48.202;16.334;2022-12-18T12:44:44;100970.81;;;-2.12;67.64
40155;BME280;25875;48.202;16.334;2022-12-18T12:47:20;100970.03;;;-2.08;67.36
40155;BME280;25875;48.202;16.334;2022-12-18T12:49:49;100976.16;;;-2.05;67.43
40155;BME280;25875;48.202;16.334;2022-12-18T12:52:21;100970.13;;;-2.04;67.24
40155;BME280;25875;48.202;16.334;2022-12-18T12:54:55;100974.44;;;-2.04;67.32